Time,TemperatureF,DewpointF,PressureIn,WindDirection,WindDirectionDegrees,WindSpeedMPH,WindSpeedGustMPH,Humidity,HourlyPrecipIn,Conditions,Clouds,dailyrainin,SoftwareType,DateUTC
2013-02-25 00:01:00,6.0,-1.0,-100.00,SSE,162,3.0,7.0,71,0.00,,,-99.99,,2013-02-25 07:01:00,
2013-02-25 00:11:00,8.0,-2.0,-100.00,SE,136,4.0,7.0,63,0.00,,,-99.99,,2013-02-25 07:11:00,
2013-02-25 00:21:00,8.0,0.0,-100.00,SSE,165,3.0,6.0,70,0.00,,,-99.99,,2013-02-25 07:21:00,
2013-02-25 00:31:00,8.0,-1.0,-100.00,SSW,205,1.0,4.0,67,0.00,,,-99.99,,2013-02-25 07:31:00,
2013-02-25 00:41:00,9.0,2.0,-100.00,SSE,155,1.0,3.0,72,0.00,,,-99.99,,2013-02-25 07:41:00,
2013-02-25 00:51:00,11.0,-1.0,-100.00,SE,126,2.0,9.0,58,0.00,,,-99.99,,2013-02-25 07:51:00,
2013-02-25 01:01:00,12.0,0.0,-100.00,SSE,157,7.0,9.0,58,0.00,,,-99.99,,2013-02-25 08:01:00,
2013-02-25 01:11:00,11.0,-2.0,-100.00,SSE,161,4.0,9.0,56,0.00,,,-99.99,,2013-02-25 08:11:00,
2013-02-25 01:21:00,12.0,0.0,-100.00,SE,138,2.0,7.0,56,0.00,,,-99.99,,2013-02-25 08:21:00,
2013-02-25 01:32:00,12.0,1.0,-100.00,South,174,4.0,11.0,61,0.00,,,-99.99,,2013-02-25 08:32:00,
2013-02-25 01:41:00,14.0,3.0,-100.00,SSW,203,11.0,17.0,60,0.00,,,-99.99,,2013-02-25 08:41:00,
2013-02-25 01:52:00,14.0,4.0,-100.00,SSW,209,14.0,19.0,63,0.00,,,-99.99,,2013-02-25 08:52:00,
2013-02-25 02:01:00,14.0,4.0,-100.00,SSW,213,14.0,19.0,64,0.00,,,-99.99,,2013-02-25 09:01:00,
2013-02-25 02:12:00,14.0,4.0,-100.00,SSW,209,15.0,21.0,63,0.00,,,-99.99,,2013-02-25 09:12:00,
2013-02-25 02:21:00,15.0,5.0,-100.00,SSW,208,16.0,21.0,65,0.00,,,-99.99,,2013-02-25 09:21:00,
2013-02-25 02:32:00,15.0,6.0,-100.00,SSW,203,17.0,24.0,66,0.00,,,-99.99,,2013-02-25 09:32:00,
2013-02-25 02:41:00,15.0,6.0,-100.00,SSW,200,17.0,22.0,67,0.00,,,-99.99,,2013-02-25 09:41:00,
2013-02-25 02:51:00,14.0,6.0,-100.00,SSW,206,17.0,22.0,68,0.00,,,-99.99,,2013-02-25 09:51:00,
2013-02-25 03:01:00,15.0,6.0,-100.00,SSW,209,17.0,23.0,68,0.00,,,-99.99,,2013-02-25 10:01:00,
2013-02-25 03:11:00,15.0,6.0,-100.00,SSW,206,17.0,23.0,67,0.00,,,-99.99,,2013-02-25 10:11:00,
2013-02-25 03:21:00,15.0,6.0,-100.00,SSW,206,16.0,22.0,68,0.00,,,-99.99,,2013-02-25 10:21:00,
2013-02-25 03:32:00,15.0,6.0,-100.00,SSW,206,16.0,23.0,67,0.00,,,-99.99,,2013-02-25 10:32:00,
2013-02-25 03:42:00,15.0,6.0,-100.00,SSW,206,16.0,22.0,67,0.00,,,-99.99,,2013-02-25 10:42:00,
2013-02-25 03:52:00,15.0,6.0,-100.00,SSW,205,17.0,23.0,65,0.00,,,-99.99,,2013-02-25 10:52:00,
2013-02-25 04:01:00,16.0,6.0,-100.00,SSW,212,15.0,21.0,64,0.00,,,-99.99,,2013-02-25 11:01:00,
2013-02-25 04:11:00,13.0,4.0,-100.00,WSW,241,11.0,21.0,66,0.00,,,-99.99,,2013-02-25 11:11:00,
2013-02-25 04:21:00,15.0,5.0,-100.00,WSW,256,9.0,15.0,67,0.00,,,-99.99,,2013-02-25 11:21:00,
2013-02-25 04:32:00,16.0,6.0,-100.00,SW,220,14.0,24.0,63,0.00,,,-99.99,,2013-02-25 11:32:00,
2013-02-25 04:42:00,16.0,6.0,-100.00,SSW,213,16.0,24.0,62,0.00,,,-99.99,,2013-02-25 11:42:00,
2013-02-25 04:52:00,17.0,5.0,-100.00,SW,215,16.0,24.0,60,0.00,,,-99.99,,2013-02-25 11:52:00,
2013-02-25 05:02:00,16.0,5.0,-100.00,SW,215,15.0,26.0,61,0.00,,,-99.99,,2013-02-25 12:02:00,
2013-02-25 05:11:00,17.0,5.0,-100.00,SSW,212,17.0,27.0,59,0.00,,,-99.99,,2013-02-25 12:11:00,
2013-02-25 05:21:00,17.0,5.0,-100.00,SW,216,16.0,24.0,58,0.00,,,-99.99,,2013-02-25 12:21:00,
2013-02-25 05:32:00,18.0,5.0,-100.00,SSW,210,16.0,22.0,56,0.00,,,-99.99,,2013-02-25 12:32:00,
2013-02-25 05:42:00,17.0,4.0,-100.00,SSW,209,17.0,26.0,56,0.00,,,-99.99,,2013-02-25 12:42:00,
2013-02-25 05:53:00,18.0,4.0,-100.00,SSW,210,17.0,24.0,55,0.00,,,-99.99,,2013-02-25 12:53:00,
2013-02-25 06:02:00,18.0,4.0,-100.00,SSW,203,16.0,25.0,55,0.00,,,-99.99,,2013-02-25 13:02:00,
2013-02-25 06:12:00,18.0,4.0,-100.00,SSW,200,17.0,25.0,54,0.00,,,-99.99,,2013-02-25 13:12:00,
2013-02-25 06:22:00,18.0,3.0,-100.00,SSW,199,15.0,26.0,51,0.00,,,-99.99,,2013-02-25 13:22:00,
2013-02-25 06:32:00,18.0,3.0,-100.00,SSW,198,13.0,19.0,51,0.00,,,-99.99,,2013-02-25 13:32:00,
2013-02-25 06:42:00,16.0,1.0,-100.00,SSE,158,7.0,17.0,52,0.00,,,-99.99,,2013-02-25 13:42:00,
2013-02-25 06:52:00,16.0,1.0,-100.00,SE,127,4.0,9.0,53,0.00,,,-99.99,,2013-02-25 13:52:00,
2013-02-25 07:03:00,12.0,-1.0,-100.00,ESE,113,6.0,12.0,56,0.00,,,-99.99,,2013-02-25 14:03:00,
2013-02-25 07:17:00,9.0,0.0,-100.00,East,79,6.0,12.0,64,0.00,,,-99.99,,2013-02-25 14:17:00,
2013-02-25 07:32:00,7.0,0.0,-100.00,NE,54,9.0,14.0,71,0.00,,,-99.99,,2013-02-25 14:32:00,
2013-02-25 07:42:00,8.0,0.0,-100.00,ENE,73,6.0,11.0,68,0.00,,,-99.99,,2013-02-25 14:42:00,
2013-02-25 07:52:00,8.0,0.0,-100.00,ENE,78,3.0,8.0,69,0.00,,,-99.99,,2013-02-25 14:52:00,
2013-02-25 08:02:00,8.0,-1.0,-100.00,ENE,73,5.0,9.0,67,0.00,,,-99.99,,2013-02-25 15:02:00,
2013-02-25 08:11:00,9.0,1.0,-100.00,East,90,5.0,9.0,70,0.00,,,-99.99,,2013-02-25 15:11:00,
2013-02-25 08:21:00,9.0,2.0,-100.00,East,96,6.0,10.0,72,0.00,,,-99.99,,2013-02-25 15:21:00,
2013-02-25 08:41:00,10.0,3.0,-100.00,East,97,7.0,12.0,73,0.00,,,-99.99,,2013-02-25 15:41:00,
2013-02-25 08:51:00,10.0,3.0,-100.00,East,99,9.0,14.0,72,0.00,,,-99.99,,2013-02-25 15:51:00,
2013-02-25 09:02:00,10.0,2.0,-100.00,ESE,104,11.0,15.0,71,0.00,,,-99.99,,2013-02-25 16:02:00,
2013-02-25 09:11:00,11.0,3.0,-100.00,ESE,103,10.0,13.0,72,0.00,,,-99.99,,2013-02-25 16:11:00,
2013-02-25 09:21:00,12.0,4.0,-100.00,ESE,107,7.0,11.0,69,0.00,,,-99.99,,2013-02-25 16:21:00,
2013-02-25 09:32:00,12.0,3.0,-100.00,NE,34,4.0,7.0,65,0.00,,,-99.99,,2013-02-25 16:32:00,
2013-02-25 09:42:00,15.0,6.0,-100.00,North,4,2.0,6.0,65,0.00,,,-99.99,,2013-02-25 16:42:00,
2013-02-25 09:51:00,14.0,3.0,-100.00,North,4,2.0,4.0,60,0.00,,,-99.99,,2013-02-25 16:51:00,
2013-02-25 10:01:00,13.0,4.0,-100.00,NNE,28,4.0,6.0,67,0.00,,,-99.99,,2013-02-25 17:01:00,
2013-02-25 10:11:00,13.0,4.0,-100.00,East,89,6.0,8.0,66,0.00,,,-99.99,,2013-02-25 17:11:00,
2013-02-25 10:21:00,13.0,4.0,-100.00,East,95,9.0,16.0,70,0.00,,,-99.99,,2013-02-25 17:21:00,
2013-02-25 10:31:00,13.0,5.0,-100.00,East,100,12.0,16.0,70,0.00,,,-99.99,,2013-02-25 17:31:00,
2013-02-25 10:41:00,13.0,5.0,-100.00,East,97,8.0,14.0,71,0.00,,,-99.99,,2013-02-25 17:41:00,
2013-02-25 10:52:00,13.0,5.0,-100.00,ESE,110,11.0,13.0,71,0.00,,,-99.99,,2013-02-25 17:52:00,
2013-02-25 11:01:00,14.0,5.0,-100.00,East,100,7.0,12.0,68,0.00,,,-99.99,,2013-02-25 18:01:00,
2013-02-25 11:12:00,14.0,6.0,-100.00,East,95,6.0,11.0,68,0.00,,,-99.99,,2013-02-25 18:12:00,
2013-02-25 11:21:00,15.0,7.0,-100.00,ESE,104,7.0,11.0,70,0.00,,,-99.99,,2013-02-25 18:21:00,
2013-02-25 11:32:00,16.0,7.0,-100.00,East,86,4.0,8.0,67,0.00,,,-99.99,,2013-02-25 18:32:00,
2013-02-25 11:41:00,16.0,6.0,-100.00,East,83,4.0,9.0,63,0.00,,,-99.99,,2013-02-25 18:41:00,
2013-02-25 11:51:00,17.0,7.0,-100.00,East,90,4.0,9.0,65,0.00,,,-99.99,,2013-02-25 18:51:00,
2013-02-25 12:01:00,16.0,7.0,-100.00,East,85,6.0,9.0,68,0.00,,,-99.99,,2013-02-25 19:01:00,
2013-02-25 12:11:00,15.0,8.0,-100.00,East,83,7.0,9.0,70,0.00,,,-99.99,,2013-02-25 19:11:00,
2013-02-25 12:21:00,15.0,8.0,-100.00,ESE,107,12.0,16.0,72,0.00,,,-99.99,,2013-02-25 19:21:00,
2013-02-25 12:31:00,15.0,7.0,-100.00,ESE,109,9.0,13.0,70,0.00,,,-99.99,,2013-02-25 19:31:00,
2013-02-25 12:41:00,16.0,6.0,-100.00,East,97,7.0,13.0,67,0.00,,,-99.99,,2013-02-25 19:41:00,
2013-02-25 12:52:00,16.0,6.0,-100.00,East,93,6.0,11.0,65,0.00,,,-99.99,,2013-02-25 19:52:00,
2013-02-25 13:01:00,17.0,7.0,-100.00,ESE,103,5.0,7.0,64,0.00,,,-99.99,,2013-02-25 20:01:00,
2013-02-25 13:11:00,18.0,8.0,-100.00,ESE,123,4.0,7.0,65,0.00,,,-99.99,,2013-02-25 20:11:00,
2013-02-25 13:21:00,21.0,9.0,-100.00,SSE,158,2.0,4.0,59,0.00,,,-99.99,,2013-02-25 20:21:00,
2013-02-25 13:31:00,25.0,10.0,-100.00,South,181,1.0,3.0,53,0.00,,,-99.99,,2013-02-25 20:31:00,
2013-02-25 13:41:00,24.0,10.0,-100.00,ESE,106,1.0,2.0,54,0.00,,,-99.99,,2013-02-25 20:41:00,
2013-02-25 13:52:00,27.0,8.0,-100.00,ESE,104,1.0,2.0,44,0.00,,,-99.99,,2013-02-25 20:52:00,
2013-02-25 14:01:00,22.0,5.0,-100.00,East,80,2.0,5.0,47,0.00,,,-99.99,,2013-02-25 21:01:00,
2013-02-25 14:11:00,21.0,7.0,-100.00,ENE,75,3.0,6.0,56,0.00,,,-99.99,,2013-02-25 21:11:00,
2013-02-25 14:21:00,20.0,9.0,-100.00,ESE,117,7.0,11.0,62,0.00,,,-99.99,,2013-02-25 21:21:00,
2013-02-25 14:31:00,20.0,9.0,-100.00,ESE,113,7.0,11.0,63,0.00,,,-99.99,,2013-02-25 21:31:00,
2013-02-25 14:42:00,20.0,9.0,-100.00,ESE,120,6.0,10.0,60,0.00,,,-99.99,,2013-02-25 21:42:00,
2013-02-25 14:51:00,21.0,8.0,-100.00,ESE,116,6.0,9.0,57,0.00,,,-99.99,,2013-02-25 21:51:00,
2013-02-25 15:01:00,21.0,8.0,-100.00,ESE,119,5.0,9.0,57,0.00,,,-99.99,,2013-02-25 22:01:00,
2013-02-25 15:11:00,22.0,9.0,-100.00,ESE,119,4.0,7.0,57,0.00,,,-99.99,,2013-02-25 22:11:00,
2013-02-25 15:21:00,22.0,8.0,-100.00,ESE,113,5.0,8.0,54,0.00,,,-99.99,,2013-02-25 22:21:00,
2013-02-25 15:32:00,22.0,10.0,-100.00,ESE,119,5.0,7.0,60,0.00,,,-99.99,,2013-02-25 22:32:00,
2013-02-25 15:42:00,21.0,7.0,-100.00,ESE,116,6.0,7.0,53,0.00,,,-99.99,,2013-02-25 22:42:00,
2013-02-25 15:51:00,22.0,6.0,-100.00,ESE,117,5.0,7.0,49,0.00,,,-99.99,,2013-02-25 22:51:00,
2013-02-25 16:01:00,22.0,6.0,-100.00,ESE,109,6.0,7.0,50,0.00,,,-99.99,,2013-02-25 23:01:00,
2013-02-25 16:11:00,21.0,5.0,-100.00,ESE,113,6.0,7.0,50,0.00,,,-99.99,,2013-02-25 23:11:00,
2013-02-25 16:22:00,21.0,5.0,-100.00,ESE,109,6.0,8.0,50,0.00,,,-99.99,,2013-02-25 23:22:00,
2013-02-25 16:31:00,21.0,7.0,-100.00,ESE,109,7.0,10.0,53,0.00,,,-99.99,,2013-02-25 23:31:00,
2013-02-25 16:41:00,21.0,7.0,-100.00,ESE,104,6.0,9.0,55,0.00,,,-99.99,,2013-02-25 23:41:00,
2013-02-25 16:52:00,21.0,6.0,-100.00,ESE,106,6.0,11.0,52,0.00,,,-99.99,,2013-02-25 23:52:00,
2013-02-25 17:01:00,19.0,6.0,-100.00,ESE,112,8.0,11.0,57,0.00,,,-99.99,,2013-02-26 00:01:00,
2013-02-25 17:11:00,18.0,6.0,-100.00,ESE,114,8.0,11.0,58,0.00,,,-99.99,,2013-02-26 00:11:00,
2013-02-25 17:21:00,18.0,6.0,-100.00,ESE,116,9.0,13.0,60,0.00,,,-99.99,,2013-02-26 00:21:00,
2013-02-25 17:32:00,17.0,6.0,-100.00,ESE,116,9.0,11.0,61,0.00,,,-99.99,,2013-02-26 00:32:00,
2013-02-25 17:41:00,18.0,5.0,-100.00,ESE,106,15.0,19.0,57,0.00,,,-99.99,,2013-02-26 00:41:00,
2013-02-25 17:51:00,17.0,4.0,-100.00,ESE,106,14.0,20.0,57,0.00,,,-99.99,,2013-02-26 00:51:00,
2013-02-25 18:02:00,18.0,7.0,-100.00,ESE,106,12.0,16.0,62,0.00,,,-99.99,,2013-02-26 01:02:00,
2013-02-25 18:11:00,18.0,7.0,-100.00,ESE,107,10.0,12.0,60,0.00,,,-99.99,,2013-02-26 01:11:00,
2013-02-25 18:21:00,19.0,7.0,-100.00,East,100,7.0,11.0,60,0.00,,,-99.99,,2013-02-26 01:21:00,
2013-02-25 18:31:00,17.0,6.0,-100.00,East,100,6.0,10.0,62,0.00,,,-99.99,,2013-02-26 01:31:00,
2013-02-25 18:41:00,16.0,5.0,-100.00,ESE,109,7.0,10.0,60,0.00,,,-99.99,,2013-02-26 01:41:00,
2013-02-25 18:51:00,15.0,4.0,-100.00,East,89,5.0,9.0,61,0.00,,,-99.99,,2013-02-26 01:51:00,
2013-02-25 19:01:00,14.0,4.0,-100.00,West,281,1.0,4.0,64,0.00,,,-99.99,,2013-02-26 02:01:00,
2013-02-25 19:11:00,14.0,4.0,-100.00,WSW,254,1.0,4.0,64,0.00,,,-99.99,,2013-02-26 02:11:00,
2013-02-25 19:21:00,13.0,4.0,-100.00,SSE,164,2.0,4.0,67,0.00,,,-99.99,,2013-02-26 02:21:00,
2013-02-25 19:32:00,12.0,4.0,-100.00,SE,141,5.0,8.0,68,0.00,,,-99.99,,2013-02-26 02:32:00,
2013-02-25 19:41:00,13.0,4.0,-100.00,SE,140,4.0,8.0,66,0.00,,,-99.99,,2013-02-26 02:41:00,
2013-02-25 19:52:00,16.0,5.0,-100.00,SE,130,4.0,8.0,60,0.00,,,-99.99,,2013-02-26 02:52:00,
2013-02-25 20:02:00,13.0,2.0,-100.00,SE,126,6.0,8.0,61,0.00,,,-99.99,,2013-02-26 03:02:00,
2013-02-25 20:11:00,17.0,3.0,-100.00,ESE,104,4.0,6.0,55,0.00,,,-99.99,,2013-02-26 03:11:00,
2013-02-25 20:21:00,16.0,3.0,-100.00,East,100,4.0,7.0,57,0.00,,,-99.99,,2013-02-26 03:21:00,
2013-02-25 20:32:00,15.0,4.0,-100.00,East,82,4.0,9.0,61,0.00,,,-99.99,,2013-02-26 03:32:00,
2013-02-25 20:41:00,15.0,4.0,-100.00,East,86,4.0,9.0,61,0.00,,,-99.99,,2013-02-26 03:41:00,
2013-02-25 20:52:00,14.0,3.0,-100.00,ESE,119,6.0,10.0,61,0.00,,,-99.99,,2013-02-26 03:52:00,
2013-02-25 21:01:00,14.0,4.0,-100.00,East,90,3.0,7.0,63,0.00,,,-99.99,,2013-02-26 04:01:00,
2013-02-25 21:11:00,15.0,4.0,-100.00,ESE,109,5.0,8.0,62,0.00,,,-99.99,,2013-02-26 04:11:00,
2013-02-25 21:21:00,19.0,6.0,-100.00,ESE,102,6.0,9.0,55,0.00,,,-99.99,,2013-02-26 04:21:00,
2013-02-25 21:32:00,18.0,4.0,-100.00,ENE,66,6.0,9.0,54,0.00,,,-99.99,,2013-02-26 04:32:00,
2013-02-25 21:42:00,17.0,6.0,-100.00,North,359,6.0,11.0,62,0.00,,,-99.99,,2013-02-26 04:42:00,
2013-02-25 21:51:00,17.0,6.0,-100.00,NNW,332,6.0,12.0,62,0.00,,,-99.99,,2013-02-26 04:51:00,
2013-02-25 22:01:00,18.0,6.0,-100.00,West,272,6.0,17.0,58,0.00,,,-99.99,,2013-02-26 05:01:00,
2013-02-25 22:11:00,18.0,6.0,-100.00,West,268,6.0,14.0,59,0.00,,,-99.99,,2013-02-26 05:11:00,
2013-02-25 22:21:00,20.0,6.0,-100.00,West,264,4.0,7.0,55,0.00,,,-99.99,,2013-02-26 05:21:00,
2013-02-25 22:31:00,25.0,7.0,-100.00,SW,223,10.0,23.0,45,0.00,,,-99.99,,2013-02-26 05:31:00,
2013-02-25 22:42:00,26.0,6.0,-100.00,SSW,208,19.0,29.0,43,0.00,,,-99.99,,2013-02-26 05:42:00,
2013-02-25 22:52:00,25.0,7.0,-100.00,SSW,212,23.0,29.0,45,0.00,,,-99.99,,2013-02-26 05:52:00,
2013-02-25 23:02:00,25.0,7.0,-100.00,SW,219,23.0,29.0,46,0.00,,,-99.99,,2013-02-26 06:02:00,
2013-02-25 23:11:00,25.0,6.0,-100.00,SW,222,22.0,32.0,44,0.00,,,-99.99,,2013-02-26 06:11:00,
2013-02-25 23:21:00,24.0,7.0,-100.00,SSW,213,14.0,24.0,47,0.00,,,-99.99,,2013-02-26 06:21:00,
2013-02-25 23:32:00,24.0,6.0,-100.00,SW,232,16.0,22.0,46,0.00,,,-99.99,,2013-02-26 06:32:00,
2013-02-25 23:41:00,23.0,8.0,-100.00,SW,222,19.0,30.0,53,0.00,,,-99.99,,2013-02-26 06:41:00,
2013-02-25 23:51:00,22.0,10.0,-100.00,SW,215,27.0,37.0,58,0.00,,,-99.99,,2013-02-26 06:51:00,